sensor_id;sensor_type;location;lat;lon;timestamp;pressure;altitude;pressure_sealevel;temperature;humidity
76050;BME280;64967;50.234;19.224;2023-05-07T00:02:03;98556.22;;;9.57;100.00
76050;BME280;64967;50.234;19.224;2023-05-07T00:04:34;98555.78;;;9.54;100.00
76050;BME280;64967;50.234;19.224;2023-05-07T00:07:18;98546.00;;;9.53;100.00
76050;BME280;64967;50.234;19.224;2023-05-07T00:10:14;98563.41;;;9.50;100.00
76050;BME280;64967;50.234;19.224;2023-05-07T00:12:58;98555.56;;;9.55;100.00
76050;BME280;64967;50.234;19.224;2023-05-07T00:15:45;98555.53;;;9.49;100.00
76050;BME280;64967;50.234;19.224;2023-05-07T00:18:25;98562.34;;;9.45;100.00
76050;BME280;64967;50.234;19.224;2023-05-07T00:20:52;98560.00;;;9.41;100.00
76050;BME280;64967;50.234;19.224;2023-05-07T00:23:19;98559.56;;;9.38;100.00
76050;BME280;64967;50.234;19.224;2023-05-07T00:25:46;98567.94;;;9.22;100.00
76050;BME280;64967;50.234;19.224;2023-05-07T00:28:13;98565.00;;;9.17;100.00
76050;BME280;64967;50.234;19.224;2023-05-07T00:30:40;98559.84;;;9.01;100.00
76050;BME280;64967;50.234;19.224;2023-05-07T00:33:07;98570.25;;;9.04;100.00
76050;BME280;64967;50.234;19.224;2023-05-07T00:35:34;98571.09;;;9.04;100.00
76050;BME280;64967;50.234;19.224;2023-05-07T00:38:01;98571.66;;;9.00;100.00
76050;BME280;64967;50.234;19.224;2023-05-07T00:40:29;98554.31;;;8.87;100.00
76050;BME280;64967;50.234;19.224;2023-05-07T00:42:56;98571.97;;;8.90;100.00
76050;BME280;64967;50.234;19.224;2023-05-07T00:45:28;98584.94;;;8.80;100.00
76050;BME280;64967;50.234;19.224;2023-05-07T00:47:57;98585.09;;;8.78;100.00
76050;BME280;64967;50.234;19.224;2023-05-07T00:50:25;98583.19;;;8.72;100.00
76050;BME280;64967;50.234;19.224;2023-05-07T00:52:53;98532.25;;;8.41;100.00
76050;BME280;64967;50.234;19.224;2023-05-07T00:55:22;98578.28;;;8.61;100.00
76050;BME280;64967;50.234;19.224;2023-05-07T00:57:49;98565.75;;;8.54;100.00
76050;BME280;64967;50.234;19.224;2023-05-07T01:00:18;98586.19;;;8.63;100.00
76050;BME280;64967;50.234;19.224;2023-05-07T01:02:45;98581.59;;;8.42;100.00
76050;BME280;64967;50.234;19.224;2023-05-07T01:05:21;98591.13;;;8.30;100.00
76050;BME280;64967;50.234;19.224;2023-05-07T01:08:15;98588.34;;;8.23;100.00
76050;BME280;64967;50.234;19.224;2023-05-07T01:11:09;98589.91;;;8.18;100.00
76050;BME280;64967;50.234;19.224;2023-05-07T01:13:55;98581.28;;;8.07;100.00
76050;BME280;64967;50.234;19.224;2023-05-07T01:16:42;98593.72;;;8.23;100.00
76050;BME280;64967;50.234;19.224;2023-05-07T01:19:18;98590.94;;;8.17;100.00
76050;BME280;64967;50.234;19.224;2023-05-07T01:21:47;98594.63;;;8.16;100.00
76050;BME280;64967;50.234;19.224;2023-05-07T01:24:15;98596.03;;;8.12;100.00
76050;BME280;64967;50.234;19.224;2023-05-07T01:26:43;98597.72;;;8.13;100.00
76050;BME280;64967;50.234;19.224;2023-05-07T01:29:11;98580.25;;;7.94;100.00
76050;BME280;64967;50.234;19.224;2023-05-07T01:31:40;98587.13;;;8.11;100.00
76050;BME280;64967;50.234;19.224;2023-05-07T01:34:08;98561.84;;;7.97;100.00
76050;BME280;64967;50.234;19.224;2023-05-07T01:36:38;98569.31;;;8.10;100.00
76050;BME280;64967;50.234;19.224;2023-05-07T01:39:06;98581.38;;;8.14;100.00
76050;BME280;64967;50.234;19.224;2023-05-07T01:41:35;98582.78;;;8.10;100.00
76050;BME280;64967;50.234;19.224;2023-05-07T01:44:03;98596.59;;;8.22;100.00
76050;BME280;64967;50.234;19.224;2023-05-07T01:46:31;98591.59;;;8.19;100.00
76050;BME280;64967;50.234;19.224;2023-05-07T01:48:59;98591.59;;;8.19;100.00
76050;BME280;64967;50.234;19.224;2023-05-07T01:51:26;98589.34;;;8.22;100.00
76050;BME280;64967;50.234;19.224;2023-05-07T01:53:53;98592.34;;;8.27;100.00
76050;BME280;64967;50.234;19.224;2023-05-07T01:56:21;98589.63;;;8.27;100.00
76050;BME280;64967;50.234;19.224;2023-05-07T01:58:48;98570.88;;;8.19;100.00
76050;BME280;64967;50.234;19.224;2023-05-07T02:01:17;98586.72;;;8.29;100.00
76050;BME280;64967;50.234;19.224;2023-05-07T02:03:45;98593.00;;;8.29;100.00
76050;BME280;64967;50.234;19.224;2023-05-07T02:06:12;98596.34;;;8.31;100.00
76050;BME280;64967;50.234;19.224;2023-05-07T02:08:39;98595.13;;;8.34;100.00
76050;BME280;64967;50.234;19.224;2023-05-07T02:11:06;98596.97;;;8.33;100.00
76050;BME280;64967;50.234;19.224;2023-05-07T02:13:33;98574.66;;;8.25;100.00
76050;BME280;64967;50.234;19.224;2023-05-07T02:16:03;98594.66;;;8.30;100.00
76050;BME280;64967;50.234;19.224;2023-05-07T02:18:30;98598.66;;;8.34;100.00
76050;BME280;64967;50.234;19.224;2023-05-07T02:20:58;98594.78;;;8.37;100.00
76050;BME280;64967;50.234;19.224;2023-05-07T02:23:25;98598.09;;;8.39;100.00
76050;BME280;64967;50.234;19.224;2023-05-07T02:25:52;98578.50;;;8.30;100.00
76050;BME280;64967;50.234;19.224;2023-05-07T02:28:19;98601.47;;;8.41;100.00
76050;BME280;64967;50.234;19.224;2023-05-07T02:30:46;98588.09;;;8.33;100.00
76050;BME280;64967;50.234;19.224;2023-05-07T02:33:13;98594.28;;;8.33;100.00
76050;BME280;64967;50.234;19.224;2023-05-07T02:35:40;98601.75;;;8.31;100.00
76050;BME280;64967;50.234;19.224;2023-05-07T02:38:07;98602.56;;;8.32;100.00
76050;BME280;64967;50.234;19.224;2023-05-07T02:40:37;98605.69;;;8.21;100.00
76050;BME280;64967;50.234;19.224;2023-05-07T02:43:08;98608.38;;;8.21;100.00
76050;BME280;64967;50.234;19.224;2023-05-07T02:45:35;98614.53;;;8.15;100.00
76050;BME280;64967;50.234;19.224;2023-05-07T02:48:04;98601.44;;;7.97;100.00
76050;BME280;64967;50.234;19.224;2023-05-07T02:50:32;98598.91;;;7.95;100.00
76050;BME280;64967;50.234;19.224;2023-05-07T02:52:59;98611.81;;;8.00;100.00
76050;BME280;64967;50.234;19.224;2023-05-07T02:55:26;98609.41;;;8.05;100.00
76050;BME280;64967;50.234;19.224;2023-05-07T02:57:53;98616.00;;;8.02;100.00
76050;BME280;64967;50.234;19.224;2023-05-07T03:00:20;98598.06;;;7.95;100.00
76050;BME280;64967;50.234;19.224;2023-05-07T03:02:47;98607.91;;;8.02;100.00
76050;BME280;64967;50.234;19.224;2023-05-07T03:05:14;98610.06;;;8.07;100.00
76050;BME280;64967;50.234;19.224;2023-05-07T03:07:41;98618.22;;;7.99;100.00
76050;BME280;64967;50.234;19.224;2023-05-07T03:10:12;98607.56;;;8.05;100.00
76050;BME280;64967;50.234;19.224;2023-05-07T03:12:39;98614.03;;;8.11;100.00
76050;BME280;64967;50.234;19.224;2023-05-07T03:15:06;98614.88;;;8.12;100.00
76050;BME280;64967;50.234;19.224;2023-05-07T03:17:33;98623.72;;;8.05;100.00
76050;BME280;64967;50.234;19.224;2023-05-07T03:20:00;98625.03;;;8.10;100.00
76050;BME280;64967;50.234;19.224;2023-05-07T03:22:27;98633.16;;;8.01;100.00
76050;BME280;64967;50.234;19.224;2023-05-07T03:24:54;98633.16;;;8.01;100.00
76050;BME280;64967;50.234;19.224;2023-05-07T03:27:21;98630.56;;;7.93;100.00
76050;BME280;64967;50.234;19.224;2023-05-07T03:29:48;98649.41;;;7.93;100.00
76050;BME280;64967;50.234;19.224;2023-05-07T03:32:15;98638.53;;;8.01;100.00
76050;BME280;64967;50.234;19.224;2023-05-07T03:34:42;98652.28;;;8.06;100.00
76050;BME280;64967;50.234;19.224;2023-05-07T03:37:09;98644.31;;;7.98;100.00
76050;BME280;64967;50.234;19.224;2023-05-07T03:39:36;98611.97;;;7.84;100.00
76050;BME280;64967;50.234;19.224;2023-05-07T03:42:03;98656.84;;;8.06;100.00
76050;BME280;64967;50.234;19.224;2023-05-07T03:44:30;98632.16;;;7.88;100.00
76050;BME280;64967;50.234;19.224;2023-05-07T03:46:57;98657.78;;;7.98;100.00
76050;BME280;64967;50.234;19.224;2023-05-07T03:49:24;98651.25;;;7.93;100.00
76050;BME280;64967;50.234;19.224;2023-05-07T03:51:51;98656.19;;;7.89;100.00
76050;BME280;64967;50.234;19.224;2023-05-07T03:54:18;98659.88;;;7.88;100.00
76050;BME280;64967;50.234;19.224;2023-05-07T03:56:45;98659.53;;;7.91;100.00
76050;BME280;64967;50.234;19.224;2023-05-07T03:59:12;98664.91;;;7.91;100.00
76050;BME280;64967;50.234;19.224;2023-05-07T04:01:39;98664.06;;;7.91;100.00
76050;BME280;64967;50.234;19.224;2023-05-07T04:04:06;98663.31;;;7.82;100.00
76050;BME280;64967;50.234;19.224;2023-05-07T04:06:33;98669.88;;;7.65;100.00
76050;BME280;64967;50.234;19.224;2023-05-07T04:09:00;98675.34;;;7.72;100.00
76050;BME280;64967;50.234;19.224;2023-05-07T04:11:27;98663.75;;;7.71;100.00
76050;BME280;64967;50.234;19.224;2023-05-07T04:13:54;98680.25;;;7.68;100.00
76050;BME280;64967;50.234;19.224;2023-05-07T04:16:21;98686.72;;;7.59;100.00
76050;BME280;64967;50.234;19.224;2023-05-07T04:18:48;98676.38;;;7.48;100.00
76050;BME280;64967;50.234;19.224;2023-05-07T04:21:17;98690.41;;;7.58;100.00
76050;BME280;64967;50.234;19.224;2023-05-07T04:23:45;98691.44;;;7.57;100.00
76050;BME280;64967;50.234;19.224;2023-05-07T04:26:12;98695.50;;;7.53;100.00
76050;BME280;64967;50.234;19.224;2023-05-07T04:28:39;98704.84;;;7.65;100.00
76050;BME280;64967;50.234;19.224;2023-05-07T04:31:07;98699.25;;;7.67;100.00
76050;BME280;64967;50.234;19.224;2023-05-07T04:33:34;98707.25;;;7.60;100.00
76050;BME280;64967;50.234;19.224;2023-05-07T04:36:02;98705.19;;;7.62;100.00
76050;BME280;64967;50.234;19.224;2023-05-07T04:38:31;98713.56;;;7.67;100.00
76050;BME280;64967;50.234;19.224;2023-05-07T04:41:04;98717.34;;;7.58;100.00
76050;BME280;64967;50.234;19.224;2023-05-07T04:43:32;98722.72;;;7.58;100.00
76050;BME280;64967;50.234;19.224;2023-05-07T04:45:59;98727.63;;;7.54;100.00
76050;BME280;64967;50.234;19.224;2023-05-07T04:48:26;98726.47;;;7.49;100.00
76050;BME280;64967;50.234;19.224;2023-05-07T04:50:53;98687.53;;;7.14;100.00
76050;BME280;64967;50.234;19.224;2023-05-07T04:53:21;98736.94;;;7.44;100.00
76050;BME280;64967;50.234;19.224;2023-05-07T04:55:48;98697.88;;;7.25;100.00
76050;BME280;64967;50.234;19.224;2023-05-07T04:58:15;98729.28;;;7.33;100.00
76050;BME280;64967;50.234;19.224;2023-05-07T05:00:42;98734.44;;;7.42;100.00
76050;BME280;64967;50.234;19.224;2023-05-07T05:03:10;98749.38;;;7.45;100.00
76050;BME280;64967;50.234;19.224;2023-05-07T05:05:37;98759.22;;;7.52;100.00
76050;BME280;64967;50.234;19.224;2023-05-07T05:08:04;98693.09;;;7.12;100.00
76050;BME280;64967;50.234;19.224;2023-05-07T05:10:31;98753.06;;;7.44;100.00
76050;BME280;64967;50.234;19.224;2023-05-07T05:12:58;98759.50;;;7.43;100.00
76050;BME280;64967;50.234;19.224;2023-05-07T05:15:26;98761.03;;;7.37;100.00
76050;BME280;64967;50.234;19.224;2023-05-07T05:17:52;98759.56;;;7.27;100.00
76050;BME280;64967;50.234;19.224;2023-05-07T05:20:20;98757.53;;;7.29;100.00
76050;BME280;64967;50.234;19.224;2023-05-07T05:22:46;98765.25;;;7.32;100.00
76050;BME280;64967;50.234;19.224;2023-05-07T05:25:13;98769.53;;;7.49;100.00
76050;BME280;64967;50.234;19.224;2023-05-07T05:27:40;98770.53;;;7.48;100.00
76050;BME280;64967;50.234;19.224;2023-05-07T05:30:08;98767.47;;;7.28;100.00
76050;BME280;64967;50.234;19.224;2023-05-07T05:32:35;98780.84;;;7.36;100.00
76050;BME280;64967;50.234;19.224;2023-05-07T05:35:02;98785.41;;;7.36;100.00
76050;BME280;64967;50.234;19.224;2023-05-07T05:37:29;98789.78;;;7.37;100.00
76050;BME280;64967;50.234;19.224;2023-05-07T05:39:57;98790.63;;;7.37;100.00
76050;BME280;64967;50.234;19.224;2023-05-07T05:42:24;98790.47;;;7.31;100.00
76050;BME280;64967;50.234;19.224;2023-05-07T05:44:51;98796.84;;;7.38;100.00
76050;BME280;64967;50.234;19.224;2023-05-07T05:47:18;98802.91;;;7.32;100.00
76050;BME280;64967;50.234;19.224;2023-05-07T05:49:45;98807.28;;;7.33;100.00
76050;BME280;64967;50.234;19.224;2023-05-07T05:52:12;98779.16;;;7.04;100.00
76050;BME280;64967;50.234;19.224;2023-05-07T05:54:40;98803.28;;;7.29;100.00
76050;BME280;64967;50.234;19.224;2023-05-07T05:57:07;98809.34;;;7.23;100.00
76050;BME280;64967;50.234;19.224;2023-05-07T05:59:34;98750.69;;;6.87;100.00
76050;BME280;64967;50.234;19.224;2023-05-07T06:02:02;98809.34;;;7.23;100.00
76050;BME280;64967;50.234;19.224;2023-05-07T06:04:29;98809.66;;;7.28;100.00
76050;BME280;64967;50.234;19.224;2023-05-07T06:06:56;98811.75;;;7.09;100.00
76050;BME280;64967;50.234;19.224;2023-05-07T06:09:23;98817.00;;;6.95;100.00
76050;BME280;64967;50.234;19.224;2023-05-07T06:11:50;98823.03;;;7.05;100.00
76050;BME280;64967;50.234;19.224;2023-05-07T06:14:17;98823.66;;;7.15;100.00
76050;BME280;64967;50.234;19.224;2023-05-07T06:16:44;98825.09;;;7.26;100.00
76050;BME280;64967;50.234;19.224;2023-05-07T06:19:11;98831.66;;;7.31;100.00
76050;BME280;64967;50.234;19.224;2023-05-07T06:21:39;98782.66;;;7.13;100.00
76050;BME280;64967;50.234;19.224;2023-05-07T06:24:07;98825.09;;;7.34;100.00
76050;BME280;64967;50.234;19.224;2023-05-07T06:26:34;98821.19;;;6.97;100.00
76050;BME280;64967;50.234;19.224;2023-05-07T06:29:01;98790.38;;;6.69;100.00
76050;BME280;64967;50.234;19.224;2023-05-07T06:31:30;98837.09;;;7.07;100.00
76050;BME280;64967;50.234;19.224;2023-05-07T06:34:00;98823.91;;;6.97;100.00
76050;BME280;64967;50.234;19.224;2023-05-07T06:36:28;98838.09;;;7.14;100.00
76050;BME280;64967;50.234;19.224;2023-05-07T06:38:56;98829.59;;;6.94;100.00
76050;BME280;64967;50.234;19.224;2023-05-07T06:41:23;98841.41;;;6.77;100.00
76050;BME280;64967;50.234;19.224;2023-05-07T06:43:50;98841.56;;;6.76;100.00
76050;BME280;64967;50.234;19.224;2023-05-07T06:46:17;98854.16;;;6.67;100.00
76050;BME280;64967;50.234;19.224;2023-05-07T06:48:44;98832.22;;;6.47;100.00
76050;BME280;64967;50.234;19.224;2023-05-07T06:51:11;98853.50;;;6.49;100.00
76050;BME280;64967;50.234;19.224;2023-05-07T06:53:38;98853.19;;;6.52;100.00
76050;BME280;64967;50.234;19.224;2023-05-07T06:56:05;98855.38;;;6.48;100.00
76050;BME280;64967;50.234;19.224;2023-05-07T06:58:32;98855.88;;;6.52;100.00
76050;BME280;64967;50.234;19.224;2023-05-07T07:00:59;98840.78;;;6.43;100.00
76050;BME280;64967;50.234;19.224;2023-05-07T07:03:26;98858.72;;;6.58;100.00
76050;BME280;64967;50.234;19.224;2023-05-07T07:05:54;98839.09;;;6.50;100.00
76050;BME280;64967;50.234;19.224;2023-05-07T07:08:22;98838.25;;;6.57;100.00
76050;BME280;64967;50.234;19.224;2023-05-07T07:10:49;98866.94;;;6.73;100.00
76050;BME280;64967;50.234;19.224;2023-05-07T07:13:16;98866.25;;;6.71;100.00
76050;BME280;64967;50.234;19.224;2023-05-07T07:15:43;98863.22;;;6.82;100.00
76050;BME280;64967;50.234;19.224;2023-05-07T07:18:10;98881.88;;;6.76;100.00
76050;BME280;64967;50.234;19.224;2023-05-07T07:20:37;98874.16;;;6.89;100.00
76050;BME280;64967;50.234;19.224;2023-05-07T07:23:04;98867.91;;;6.80;100.00
76050;BME280;64967;50.234;19.224;2023-05-07T07:25:31;98877.34;;;6.84;100.00
76050;BME280;64967;50.234;19.224;2023-05-07T07:27:58;98879.19;;;6.76;99.73
76050;BME280;64967;50.234;19.224;2023-05-07T07:30:26;98840.75;;;6.67;100.00
76050;BME280;64967;50.234;19.224;2023-05-07T07:32:53;98902.88;;;6.88;100.00
76050;BME280;64967;50.234;19.224;2023-05-07T07:35:20;98894.28;;;6.93;100.00
76050;BME280;64967;50.234;19.224;2023-05-07T07:37:48;98892.75;;;6.98;98.64
76050;BME280;64967;50.234;19.224;2023-05-07T07:40:17;98894.53;;;7.22;99.61
76050;BME280;64967;50.234;19.224;2023-05-07T07:42:43;98900.22;;;7.35;98.52
76050;BME280;64967;50.234;19.224;2023-05-07T07:45:11;98876.03;;;7.27;97.19
76050;BME280;64967;50.234;19.224;2023-05-07T07:47:41;98898.41;;;7.28;98.36
76050;BME280;64967;50.234;19.224;2023-05-07T07:50:08;98902.47;;;7.24;97.28
76050;BME280;64967;50.234;19.224;2023-05-07T07:52:36;98911.34;;;7.32;97.60
76050;BME280;64967;50.234;19.224;2023-05-07T07:55:04;98906.81;;;7.16;98.09
76050;BME280;64967;50.234;19.224;2023-05-07T07:57:31;98910.19;;;7.18;96.75
76050;BME280;64967;50.234;19.224;2023-05-07T07:59:58;98918.59;;;7.07;96.26
76050;BME280;64967;50.234;19.224;2023-05-07T08:02:25;98913.56;;;7.12;98.06
76050;BME280;64967;50.234;19.224;2023-05-07T08:04:52;98912.22;;;7.16;96.93
76050;BME280;64967;50.234;19.224;2023-05-07T08:07:19;98918.97;;;6.96;97.54
76050;BME280;64967;50.234;19.224;2023-05-07T08:09:47;98921.47;;;7.14;96.99
76050;BME280;64967;50.234;19.224;2023-05-07T08:12:14;98919.56;;;7.31;95.52
76050;BME280;64967;50.234;19.224;2023-05-07T08:14:41;98912.84;;;7.27;95.86
76050;BME280;64967;50.234;19.224;2023-05-07T08:17:08;98931.72;;;7.18;97.10
76050;BME280;64967;50.234;19.224;2023-05-07T08:19:37;98923.66;;;7.18;96.98
76050;BME280;64967;50.234;19.224;2023-05-07T08:22:03;98908.63;;;7.40;95.99
76050;BME280;64967;50.234;19.224;2023-05-07T08:24:32;98920.91;;;7.35;96.69
76050;BME280;64967;50.234;19.224;2023-05-07T08:26:59;98931.25;;;7.54;95.51
76050;BME280;64967;50.234;19.224;2023-05-07T08:29:26;98938.47;;;7.61;95.73
76050;BME280;64967;50.234;19.224;2023-05-07T08:31:53;98930.91;;;7.57;94.75
76050;BME280;64967;50.234;19.224;2023-05-07T08:34:22;98934.44;;;7.57;94.20
76050;BME280;64967;50.234;19.224;2023-05-07T08:36:49;98938.53;;;7.45;94.69
76050;BME280;64967;50.234;19.224;2023-05-07T08:39:16;98951.75;;;7.63;94.85
76050;BME280;64967;50.234;19.224;2023-05-07T08:41:48;98956.94;;;7.73;93.30
76050;BME280;64967;50.234;19.224;2023-05-07T08:44:16;98954.84;;;7.91;92.16
76050;BME280;64967;50.234;19.224;2023-05-07T08:46:48;98945.47;;;7.79;90.68
76050;BME280;64967;50.234;19.224;2023-05-07T08:49:20;98961.97;;;7.76;92.00
76050;BME280;64967;50.234;19.224;2023-05-07T08:51:48;98965.91;;;7.49;94.49
76050;BME280;64967;50.234;19.224;2023-05-07T08:54:18;98954.09;;;7.11;95.04
76050;BME280;64967;50.234;19.224;2023-05-07T08:56:46;98953.88;;;7.21;95.77
76050;BME280;64967;50.234;19.224;2023-05-07T08:59:13;98965.66;;;7.28;95.38
76050;BME280;64967;50.234;19.224;2023-05-07T09:01:40;98974.31;;;7.54;94.04
76050;BME280;64967;50.234;19.224;2023-05-07T09:04:07;98973.66;;;7.44;93.89
76050;BME280;64967;50.234;19.224;2023-05-07T09:06:36;98981.03;;;7.58;92.50
76050;BME280;64967;50.234;19.224;2023-05-07T09:09:04;98954.84;;;7.36;94.11
76050;BME280;64967;50.234;19.224;2023-05-07T09:11:32;98985.72;;;7.64;92.35
76050;BME280;64967;50.234;19.224;2023-05-07T09:13:59;98986.94;;;7.45;94.19
76050;BME280;64967;50.234;19.224;2023-05-07T09:16:30;98985.44;;;7.35;94.28
76050;BME280;64967;50.234;19.224;2023-05-07T09:18:58;98984.81;;;7.25;96.38
76050;BME280;64967;50.234;19.224;2023-05-07T09:21:27;98977.06;;;7.30;95.68
76050;BME280;64967;50.234;19.224;2023-05-07T09:23:55;98987.66;;;7.23;95.80
76050;BME280;64967;50.234;19.224;2023-05-07T09:26:23;98988.19;;;7.10;96.73
76050;BME280;64967;50.234;19.224;2023-05-07T09:28:51;98983.84;;;7.01;97.12
76050;BME280;64967;50.234;19.224;2023-05-07T09:31:18;99007.69;;;6.96;97.59
76050;BME280;64967;50.234;19.224;2023-05-07T09:33:47;99011.53;;;6.94;97.09
76050;BME280;64967;50.234;19.224;2023-05-07T09:36:15;99009.00;;;7.16;97.36
76050;BME280;64967;50.234;19.224;2023-05-07T09:38:42;98982.50;;;6.97;97.57
76050;BME280;64967;50.234;19.224;2023-05-07T09:41:12;99010.69;;;7.17;95.86
76050;BME280;64967;50.234;19.224;2023-05-07T09:43:40;99004.16;;;7.20;95.98
76050;BME280;64967;50.234;19.224;2023-05-07T09:46:14;99006.66;;;7.22;96.43
76050;BME280;64967;50.234;19.224;2023-05-07T09:48:43;99005.94;;;7.44;96.27
76050;BME280;64967;50.234;19.224;2023-05-07T09:51:34;99011.16;;;7.45;93.55
76050;BME280;64967;50.234;19.224;2023-05-07T09:54:06;99013.06;;;7.29;94.49
76050;BME280;64967;50.234;19.224;2023-05-07T09:56:34;99019.25;;;7.21;95.83
76050;BME280;64967;50.234;19.224;2023-05-07T09:59:05;99015.38;;;7.40;95.29
76050;BME280;64967;50.234;19.224;2023-05-07T10:01:36;99020.44;;;7.43;94.38
76050;BME280;64967;50.234;19.224;2023-05-07T10:04:03;99030.78;;;7.62;92.60
76050;BME280;64967;50.234;19.224;2023-05-07T10:06:31;99029.09;;;7.77;91.72
76050;BME280;64967;50.234;19.224;2023-05-07T10:08:58;99015.50;;;7.62;92.79
76050;BME280;64967;50.234;19.224;2023-05-07T10:11:26;99032.28;;;7.73;92.65
76050;BME280;64967;50.234;19.224;2023-05-07T10:13:53;99038.16;;;7.76;92.96
76050;BME280;64967;50.234;19.224;2023-05-07T10:16:21;99046.50;;;7.97;93.89
76050;BME280;64967;50.234;19.224;2023-05-07T10:18:49;99042.28;;;8.03;93.83
76050;BME280;64967;50.234;19.224;2023-05-07T10:21:20;99044.47;;;8.07;92.29
76050;BME280;64967;50.234;19.224;2023-05-07T10:23:56;99055.09;;;7.93;93.53
76050;BME280;64967;50.234;19.224;2023-05-07T10:26:25;99018.16;;;7.71;91.79
76050;BME280;64967;50.234;19.224;2023-05-07T10:29:02;99048.59;;;7.87;93.13
76050;BME280;64967;50.234;19.224;2023-05-07T10:34:01;99043.28;;;8.02;91.71
76050;BME280;64967;50.234;19.224;2023-05-07T10:36:34;99042.38;;;7.79;91.46
76050;BME280;64967;50.234;19.224;2023-05-07T10:39:05;99067.75;;;7.84;92.17
76050;BME280;64967;50.234;19.224;2023-05-07T10:41:33;99020.94;;;7.46;91.13
76050;BME280;64967;50.234;19.224;2023-05-07T10:44:00;99061.94;;;7.65;91.73
76050;BME280;64967;50.234;19.224;2023-05-07T10:46:29;99062.75;;;7.57;92.77
76050;BME280;64967;50.234;19.224;2023-05-07T10:51:35;99059.41;;;7.63;91.84
76050;BME280;64967;50.234;19.224;2023-05-07T10:56:40;99078.91;;;7.49;93.88
76050;BME280;64967;50.234;19.224;2023-05-07T11:01:56;99077.88;;;7.82;92.47
76050;BME280;64967;50.234;19.224;2023-05-07T11:04:25;99070.97;;;7.80;91.67
76050;BME280;64967;50.234;19.224;2023-05-07T11:15:08;99075.22;;;7.58;92.03
76050;BME280;64967;50.234;19.224;2023-05-07T11:17:56;99077.69;;;7.84;92.65
76050;BME280;64967;50.234;19.224;2023-05-07T11:20:53;99079.19;;;7.86;91.42
76050;BME280;64967;50.234;19.224;2023-05-07T11:26:04;99088.78;;;7.97;91.15
76050;BME280;64967;50.234;19.224;2023-05-07T11:28:38;99088.13;;;7.71;91.71
76050;BME280;64967;50.234;19.224;2023-05-07T11:31:05;99089.69;;;7.65;91.80
76050;BME280;64967;50.234;19.224;2023-05-07T11:33:33;99085.97;;;7.66;91.85
76050;BME280;64967;50.234;19.224;2023-05-07T11:36:02;99086.25;;;7.79;92.22
76050;BME280;64967;50.234;19.224;2023-05-07T11:38:30;99089.34;;;7.68;92.33
76050;BME280;64967;50.234;19.224;2023-05-07T11:40:59;99089.81;;;7.72;90.64
76050;BME280;64967;50.234;19.224;2023-05-07T11:43:27;99092.19;;;7.67;91.17
76050;BME280;64967;50.234;19.224;2023-05-07T11:45:54;99104.47;;;7.53;91.94
76050;BME280;64967;50.234;19.224;2023-05-07T11:48:22;99099.44;;;7.50;91.93
76050;BME280;64967;50.234;19.224;2023-05-07T11:53:26;99111.19;;;7.81;91.29
76050;BME280;64967;50.234;19.224;2023-05-07T11:55:56;99109.69;;;7.79;89.84
76050;BME280;64967;50.234;19.224;2023-05-07T11:58:24;99108.16;;;7.76;91.65
76050;BME280;64967;50.234;19.224;2023-05-07T12:00:54;99105.13;;;7.87;89.56
76050;BME280;64967;50.234;19.224;2023-05-07T12:03:21;99090.84;;;7.79;91.00
76050;BME280;64967;50.234;19.224;2023-05-07T12:05:48;99105.75;;;8.05;90.34
76050;BME280;64967;50.234;19.224;2023-05-07T12:08:16;99106.75;;;8.04;88.43
76050;BME280;64967;50.234;19.224;2023-05-07T12:10:45;99080.06;;;7.79;89.40
76050;BME280;64967;50.234;19.224;2023-05-07T12:13:19;99107.28;;;7.92;89.51
76050;BME280;64967;50.234;19.224;2023-05-07T12:15:47;99098.19;;;7.93;89.44
76050;BME280;64967;50.234;19.224;2023-05-07T12:18:17;99111.91;;;8.22;89.21
76050;BME280;64967;50.234;19.224;2023-05-07T12:20:44;99105.19;;;8.18;88.79
76050;BME280;64967;50.234;19.224;2023-05-07T12:23:12;99114.75;;;8.29;87.04
76050;BME280;64967;50.234;19.224;2023-05-07T12:25:40;99111.09;;;8.14;87.85
76050;BME280;64967;50.234;19.224;2023-05-07T12:28:15;99110.38;;;8.36;87.87
76050;BME280;64967;50.234;19.224;2023-05-07T12:30:44;99124.72;;;8.67;87.78
76050;BME280;64967;50.234;19.224;2023-05-07T12:33:11;99121.66;;;8.70;85.38
76050;BME280;64967;50.234;19.224;2023-05-07T12:35:40;99118.66;;;8.65;86.53
76050;BME280;64967;50.234;19.224;2023-05-07T12:38:17;99132.59;;;8.46;85.26
76050;BME280;64967;50.234;19.224;2023-05-07T12:40:54;99123.56;;;8.62;85.81
76050;BME280;64967;50.234;19.224;2023-05-07T12:43:28;99124.88;;;8.66;87.26
76050;BME280;64967;50.234;19.224;2023-05-07T12:45:58;99120.38;;;8.58;86.02
76050;BME280;64967;50.234;19.224;2023-05-07T12:48:26;99126.72;;;8.34;89.43
76050;BME280;64967;50.234;19.224;2023-05-07T12:50:57;99114.44;;;8.32;87.70
76050;BME280;64967;50.234;19.224;2023-05-07T12:53:26;99106.69;;;8.21;87.62
76050;BME280;64967;50.234;19.224;2023-05-07T12:55:55;99132.94;;;8.27;87.33
76050;BME280;64967;50.234;19.224;2023-05-07T12:58:26;99134.00;;;8.01;87.08
76050;BME280;64967;50.234;19.224;2023-05-07T13:00:55;99132.38;;;7.76;88.08
76050;BME280;64967;50.234;19.224;2023-05-07T13:03:27;99138.94;;;7.82;87.95
76050;BME280;64967;50.234;19.224;2023-05-07T13:05:57;99140.78;;;7.89;88.67
76050;BME280;64967;50.234;19.224;2023-05-07T13:08:29;99143.13;;;8.00;89.49
76050;BME280;64967;50.234;19.224;2023-05-07T13:10:58;99118.91;;;7.92;87.05
76050;BME280;64967;50.234;19.224;2023-05-07T13:13:26;99106.06;;;8.02;86.51
76050;BME280;64967;50.234;19.224;2023-05-07T13:15:57;99151.66;;;8.28;85.92
76050;BME280;64967;50.234;19.224;2023-05-07T13:18:25;99144.59;;;8.11;85.51
76050;BME280;64967;50.234;19.224;2023-05-07T13:20:53;99142.22;;;8.16;85.84
76050;BME280;64967;50.234;19.224;2023-05-07T13:23:20;99142.56;;;8.21;86.53
76050;BME280;64967;50.234;19.224;2023-05-07T13:25:48;99147.94;;;8.29;86.66
76050;BME280;64967;50.234;19.224;2023-05-07T13:28:16;99148.78;;;8.30;87.45